sensor_id;sensor_type;location;lat;lon;timestamp;P1;durP1;ratioP1;P2;durP2;ratioP2
16824;SDS011;8529;48.108;-1.706;2023-04-24T00:00:26;5.25;;;2.83;;
16824;SDS011;8529;48.108;-1.706;2023-04-24T00:02:53;4.20;;;2.58;;
16824;SDS011;8529;48.108;-1.706;2023-04-24T00:05:22;4.70;;;2.95;;
16824;SDS011;8529;48.108;-1.706;2023-04-24T00:07:49;5.43;;;3.50;;
16824;SDS011;8529;48.108;-1.706;2023-04-24T00:10:18;5.55;;;3.00;;
16824;SDS011;8529;48.108;-1.706;2023-04-24T00:12:44;4.78;;;3.10;;
16824;SDS011;8529;48.108;-1.706;2023-04-24T00:15:11;5.00;;;2.95;;
16824;SDS011;8529;48.108;-1.706;2023-04-24T00:17:40;7.47;;;3.42;;
16824;SDS011;8529;48.108;-1.706;2023-04-24T00:20:07;7.05;;;3.17;;
16824;SDS011;8529;48.108;-1.706;2023-04-24T00:22:35;6.45;;;3.60;;
16824;SDS011;8529;48.108;-1.706;2023-04-24T00:25:02;6.35;;;3.53;;
16824;SDS011;8529;48.108;-1.706;2023-04-24T00:27:30;7.20;;;3.60;;
16824;SDS011;8529;48.108;-1.706;2023-04-24T00:29:57;5.05;;;3.08;;
16824;SDS011;8529;48.108;-1.706;2023-04-24T00:32:24;4.72;;;2.75;;
16824;SDS011;8529;48.108;-1.706;2023-04-24T00:34:52;7.28;;;3.33;;
16824;SDS011;8529;48.108;-1.706;2023-04-24T00:37:19;6.07;;;3.85;;
16824;SDS011;8529;48.108;-1.706;2023-04-24T00:39:46;6.07;;;2.95;;
16824;SDS011;8529;48.108;-1.706;2023-04-24T00:42:13;4.18;;;2.97;;
16824;SDS011;8529;48.108;-1.706;2023-04-24T00:44:40;5.97;;;3.03;;
16824;SDS011;8529;48.108;-1.706;2023-04-24T00:47:07;5.38;;;3.38;;
16824;SDS011;8529;48.108;-1.706;2023-04-24T00:49:34;4.15;;;2.85;;
16824;SDS011;8529;48.108;-1.706;2023-04-24T00:52:02;4.07;;;2.85;;
16824;SDS011;8529;48.108;-1.706;2023-04-24T00:54:33;7.97;;;3.55;;
16824;SDS011;8529;48.108;-1.706;2023-04-24T00:57:00;6.95;;;3.20;;
16824;SDS011;8529;48.108;-1.706;2023-04-24T00:59:28;4.32;;;3.00;;
16824;SDS011;8529;48.108;-1.706;2023-04-24T01:01:55;9.07;;;3.78;;
16824;SDS011;8529;48.108;-1.706;2023-04-24T01:04:22;6.50;;;3.53;;
16824;SDS011;8529;48.108;-1.706;2023-04-24T01:06:51;6.38;;;3.45;;
16824;SDS011;8529;48.108;-1.706;2023-04-24T01:09:20;6.05;;;3.75;;
16824;SDS011;8529;48.108;-1.706;2023-04-24T01:11:49;7.95;;;4.03;;
16824;SDS011;8529;48.108;-1.706;2023-04-24T01:14:16;6.57;;;3.88;;
16824;SDS011;8529;48.108;-1.706;2023-04-24T01:16:43;5.00;;;3.63;;
16824;SDS011;8529;48.108;-1.706;2023-04-24T01:19:10;7.90;;;3.80;;
16824;SDS011;8529;48.108;-1.706;2023-04-24T01:21:37;9.13;;;3.88;;
16824;SDS011;8529;48.108;-1.706;2023-04-24T01:24:06;6.63;;;3.72;;
16824;SDS011;8529;48.108;-1.706;2023-04-24T01:26:33;6.28;;;3.42;;
16824;SDS011;8529;48.108;-1.706;2023-04-24T01:29:00;5.43;;;3.45;;
16824;SDS011;8529;48.108;-1.706;2023-04-24T01:31:27;5.78;;;3.50;;
16824;SDS011;8529;48.108;-1.706;2023-04-24T01:33:55;6.15;;;3.42;;
16824;SDS011;8529;48.108;-1.706;2023-04-24T01:36:22;7.30;;;3.35;;
16824;SDS011;8529;48.108;-1.706;2023-04-24T01:38:52;12.85;;;4.20;;
16824;SDS011;8529;48.108;-1.706;2023-04-24T01:41:20;8.68;;;4.53;;
16824;SDS011;8529;48.108;-1.706;2023-04-24T01:43:47;7.90;;;4.07;;
16824;SDS011;8529;48.108;-1.706;2023-04-24T01:46:15;5.15;;;3.70;;
16824;SDS011;8529;48.108;-1.706;2023-04-24T01:48:42;7.45;;;4.85;;
16824;SDS011;8529;48.108;-1.706;2023-04-24T01:51:10;8.00;;;3.67;;
16824;SDS011;8529;48.108;-1.706;2023-04-24T01:53:37;5.80;;;3.95;;
16824;SDS011;8529;48.108;-1.706;2023-04-24T01:56:04;7.95;;;3.65;;
16824;SDS011;8529;48.108;-1.706;2023-04-24T01:58:33;10.90;;;3.92;;
16824;SDS011;8529;48.108;-1.706;2023-04-24T02:00:59;7.68;;;3.28;;
16824;SDS011;8529;48.108;-1.706;2023-04-24T02:03:26;6.75;;;3.53;;
16824;SDS011;8529;48.108;-1.706;2023-04-24T02:05:53;7.72;;;3.80;;
16824;SDS011;8529;48.108;-1.706;2023-04-24T02:08:20;5.75;;;3.65;;
16824;SDS011;8529;48.108;-1.706;2023-04-24T02:10:47;7.88;;;3.42;;
16824;SDS011;8529;48.108;-1.706;2023-04-24T02:13:14;6.38;;;3.47;;
16824;SDS011;8529;48.108;-1.706;2023-04-24T02:15:42;5.00;;;3.50;;
16824;SDS011;8529;48.108;-1.706;2023-04-24T02:18:09;6.38;;;3.22;;
16824;SDS011;8529;48.108;-1.706;2023-04-24T02:20:37;7.47;;;3.60;;
16824;SDS011;8529;48.108;-1.706;2023-04-24T02:23:04;6.20;;;3.25;;
16824;SDS011;8529;48.108;-1.706;2023-04-24T02:25:31;9.55;;;3.65;;
16824;SDS011;8529;48.108;-1.706;2023-04-24T02:27:59;7.82;;;3.50;;
16824;SDS011;8529;48.108;-1.706;2023-04-24T02:30:27;5.75;;;3.65;;
16824;SDS011;8529;48.108;-1.706;2023-04-24T02:32:55;4.72;;;2.90;;
16824;SDS011;8529;48.108;-1.706;2023-04-24T02:35:22;6.78;;;3.30;;
16824;SDS011;8529;48.108;-1.706;2023-04-24T02:37:49;4.47;;;2.70;;
16824;SDS011;8529;48.108;-1.706;2023-04-24T02:40:16;6.75;;;3.10;;
16824;SDS011;8529;48.108;-1.706;2023-04-24T02:42:43;7.00;;;3.33;;
16824;SDS011;8529;48.108;-1.706;2023-04-24T02:45:10;9.23;;;3.33;;
16824;SDS011;8529;48.108;-1.706;2023-04-24T02:47:37;6.00;;;3.35;;
16824;SDS011;8529;48.108;-1.706;2023-04-24T02:50:06;10.20;;;3.10;;
16824;SDS011;8529;48.108;-1.706;2023-04-24T02:52:33;5.68;;;2.63;;
16824;SDS011;8529;48.108;-1.706;2023-04-24T02:55:00;5.45;;;3.10;;
16824;SDS011;8529;48.108;-1.706;2023-04-24T02:57:27;6.90;;;3.03;;
16824;SDS011;8529;48.108;-1.706;2023-04-24T02:59:54;4.53;;;3.20;;
16824;SDS011;8529;48.108;-1.706;2023-04-24T03:02:21;5.03;;;3.35;;
16824;SDS011;8529;48.108;-1.706;2023-04-24T03:04:48;4.60;;;3.08;;
16824;SDS011;8529;48.108;-1.706;2023-04-24T03:07:16;5.47;;;2.80;;
16824;SDS011;8529;48.108;-1.706;2023-04-24T03:09:45;7.47;;;3.05;;
16824;SDS011;8529;48.108;-1.706;2023-04-24T03:12:12;7.90;;;3.45;;
16824;SDS011;8529;48.108;-1.706;2023-04-24T03:14:39;8.82;;;3.53;;
16824;SDS011;8529;48.108;-1.706;2023-04-24T03:17:06;4.22;;;2.85;;
16824;SDS011;8529;48.108;-1.706;2023-04-24T03:19:33;5.35;;;3.00;;
16824;SDS011;8529;48.108;-1.706;2023-04-24T03:22:01;7.38;;;3.15;;
16824;SDS011;8529;48.108;-1.706;2023-04-24T03:24:29;5.80;;;3.08;;
16824;SDS011;8529;48.108;-1.706;2023-04-24T03:26:57;5.25;;;2.90;;
16824;SDS011;8529;48.108;-1.706;2023-04-24T03:29:24;10.68;;;3.28;;
16824;SDS011;8529;48.108;-1.706;2023-04-24T03:31:50;6.60;;;2.70;;
16824;SDS011;8529;48.108;-1.706;2023-04-24T03:34:17;6.40;;;3.25;;
16824;SDS011;8529;48.108;-1.706;2023-04-24T03:36:44;9.73;;;3.00;;
16824;SDS011;8529;48.108;-1.706;2023-04-24T03:39:12;6.90;;;2.97;;
16824;SDS011;8529;48.108;-1.706;2023-04-24T03:41:40;8.75;;;2.85;;
16824;SDS011;8529;48.108;-1.706;2023-04-24T03:44:07;5.63;;;2.55;;
16824;SDS011;8529;48.108;-1.706;2023-04-24T03:46:34;5.22;;;3.05;;
16824;SDS011;8529;48.108;-1.706;2023-04-24T03:49:01;5.82;;;2.70;;
16824;SDS011;8529;48.108;-1.706;2023-04-24T03:51:28;7.25;;;3.05;;
16824;SDS011;8529;48.108;-1.706;2023-04-24T03:53:55;5.85;;;2.97;;
16824;SDS011;8529;48.108;-1.706;2023-04-24T03:56:22;4.80;;;2.80;;
16824;SDS011;8529;48.108;-1.706;2023-04-24T03:58:51;4.50;;;2.50;;
16824;SDS011;8529;48.108;-1.706;2023-04-24T04:01:17;7.35;;;2.90;;
16824;SDS011;8529;48.108;-1.706;2023-04-24T04:03:45;6.30;;;2.72;;
16824;SDS011;8529;48.108;-1.706;2023-04-24T04:06:12;5.25;;;2.80;;
16824;SDS011;8529;48.108;-1.706;2023-04-24T04:08:39;4.88;;;2.60;;
16824;SDS011;8529;48.108;-1.706;2023-04-24T04:11:06;5.72;;;2.65;;
16824;SDS011;8529;48.108;-1.706;2023-04-24T04:13:33;6.65;;;3.20;;
16824;SDS011;8529;48.108;-1.706;2023-04-24T04:16:01;7.05;;;2.90;;
16824;SDS011;8529;48.108;-1.706;2023-04-24T04:18:28;5.05;;;2.83;;
16824;SDS011;8529;48.108;-1.706;2023-04-24T04:20:55;7.55;;;2.80;;
16824;SDS011;8529;48.108;-1.706;2023-04-24T04:23:22;4.93;;;2.92;;
16824;SDS011;8529;48.108;-1.706;2023-04-24T04:25:49;8.07;;;2.65;;
16824;SDS011;8529;48.108;-1.706;2023-04-24T04:28:16;5.30;;;2.72;;
16824;SDS011;8529;48.108;-1.706;2023-04-24T04:30:44;6.18;;;2.92;;
16824;SDS011;8529;48.108;-1.706;2023-04-24T04:33:13;6.63;;;2.67;;
16824;SDS011;8529;48.108;-1.706;2023-04-24T04:35:41;7.65;;;2.72;;
16824;SDS011;8529;48.108;-1.706;2023-04-24T04:38:08;4.10;;;2.47;;
16824;SDS011;8529;48.108;-1.706;2023-04-24T04:40:35;8.02;;;3.05;;
16824;SDS011;8529;48.108;-1.706;2023-04-24T04:43:02;5.07;;;2.72;;
16824;SDS011;8529;48.108;-1.706;2023-04-24T04:45:29;3.58;;;2.63;;
16824;SDS011;8529;48.108;-1.706;2023-04-24T04:47:57;7.30;;;2.60;;
16824;SDS011;8529;48.108;-1.706;2023-04-24T04:50:27;3.75;;;2.42;;
16824;SDS011;8529;48.108;-1.706;2023-04-24T04:52:54;4.50;;;2.75;;
16824;SDS011;8529;48.108;-1.706;2023-04-24T04:55:21;7.05;;;2.92;;
16824;SDS011;8529;48.108;-1.706;2023-04-24T04:57:47;6.75;;;3.05;;
16824;SDS011;8529;48.108;-1.706;2023-04-24T05:00:14;4.55;;;2.53;;
16824;SDS011;8529;48.108;-1.706;2023-04-24T05:02:42;5.95;;;2.47;;
16824;SDS011;8529;48.108;-1.706;2023-04-24T05:05:09;6.22;;;2.95;;
16824;SDS011;8529;48.108;-1.706;2023-04-24T05:07:37;5.55;;;2.83;;
16824;SDS011;8529;48.108;-1.706;2023-04-24T05:10:04;4.47;;;2.95;;
16824;SDS011;8529;48.108;-1.706;2023-04-24T05:12:32;4.95;;;2.67;;
16824;SDS011;8529;48.108;-1.706;2023-04-24T05:14:59;5.88;;;3.00;;
16824;SDS011;8529;48.108;-1.706;2023-04-24T05:17:26;4.15;;;2.90;;
16824;SDS011;8529;48.108;-1.706;2023-04-24T05:19:53;4.20;;;2.20;;
16824;SDS011;8529;48.108;-1.706;2023-04-24T05:22:20;6.97;;;3.20;;
16824;SDS011;8529;48.108;-1.706;2023-04-24T05:24:48;5.90;;;2.80;;
16824;SDS011;8529;48.108;-1.706;2023-04-24T05:27:15;4.60;;;2.78;;
16824;SDS011;8529;48.108;-1.706;2023-04-24T05:29:42;9.70;;;3.15;;
16824;SDS011;8529;48.108;-1.706;2023-04-24T05:32:09;5.75;;;2.70;;
16824;SDS011;8529;48.108;-1.706;2023-04-24T05:34:36;5.53;;;2.83;;
16824;SDS011;8529;48.108;-1.706;2023-04-24T05:37:03;8.00;;;2.50;;
16824;SDS011;8529;48.108;-1.706;2023-04-24T05:39:33;7.35;;;3.17;;
16824;SDS011;8529;48.108;-1.706;2023-04-24T05:42:01;5.95;;;3.00;;
16824;SDS011;8529;48.108;-1.706;2023-04-24T05:44:29;9.45;;;3.55;;
16824;SDS011;8529;48.108;-1.706;2023-04-24T05:46:56;5.97;;;3.17;;
16824;SDS011;8529;48.108;-1.706;2023-04-24T05:49:23;5.60;;;3.00;;
16824;SDS011;8529;48.108;-1.706;2023-04-24T05:51:50;4.35;;;3.00;;
16824;SDS011;8529;48.108;-1.706;2023-04-24T05:54:17;6.70;;;2.97;;
16824;SDS011;8529;48.108;-1.706;2023-04-24T05:56:44;6.78;;;3.38;;
16824;SDS011;8529;48.108;-1.706;2023-04-24T05:59:12;7.38;;;2.75;;
16824;SDS011;8529;48.108;-1.706;2023-04-24T06:01:39;6.57;;;3.00;;
16824;SDS011;8529;48.108;-1.706;2023-04-24T06:04:06;6.65;;;3.30;;
16824;SDS011;8529;48.108;-1.706;2023-04-24T06:06:34;6.82;;;3.10;;
16824;SDS011;8529;48.108;-1.706;2023-04-24T06:09:01;5.18;;;3.35;;
16824;SDS011;8529;48.108;-1.706;2023-04-24T06:11:28;8.25;;;3.65;;
16824;SDS011;8529;48.108;-1.706;2023-04-24T06:13:55;7.47;;;3.28;;
16824;SDS011;8529;48.108;-1.706;2023-04-24T06:16:24;9.02;;;3.50;;
16824;SDS011;8529;48.108;-1.706;2023-04-24T06:18:50;6.63;;;3.35;;
16824;SDS011;8529;48.108;-1.706;2023-04-24T06:21:17;6.95;;;3.50;;
16824;SDS011;8529;48.108;-1.706;2023-04-24T06:23:44;6.47;;;3.88;;
16824;SDS011;8529;48.108;-1.706;2023-04-24T06:26:12;4.40;;;3.08;;
16824;SDS011;8529;48.108;-1.706;2023-04-24T06:28:39;5.90;;;3.03;;
16824;SDS011;8529;48.108;-1.706;2023-04-24T06:31:06;7.03;;;2.90;;
16824;SDS011;8529;48.108;-1.706;2023-04-24T06:33:34;6.10;;;3.05;;
16824;SDS011;8529;48.108;-1.706;2023-04-24T06:36:01;6.00;;;3.00;;
16824;SDS011;8529;48.108;-1.706;2023-04-24T06:38:29;5.65;;;3.42;;
16824;SDS011;8529;48.108;-1.706;2023-04-24T06:40:56;7.55;;;3.72;;
16824;SDS011;8529;48.108;-1.706;2023-04-24T06:43:22;8.20;;;3.40;;
16824;SDS011;8529;48.108;-1.706;2023-04-24T06:45:49;4.80;;;3.05;;
16824;SDS011;8529;48.108;-1.706;2023-04-24T06:48:16;6.60;;;2.90;;
16824;SDS011;8529;48.108;-1.706;2023-04-24T06:50:44;5.60;;;3.15;;
16824;SDS011;8529;48.108;-1.706;2023-04-24T06:53:11;5.07;;;3.33;;
16824;SDS011;8529;48.108;-1.706;2023-04-24T06:55:39;9.60;;;3.45;;
16824;SDS011;8529;48.108;-1.706;2023-04-24T06:58:06;7.13;;;4.00;;
16824;SDS011;8529;48.108;-1.706;2023-04-24T07:00:33;5.72;;;3.03;;
16824;SDS011;8529;48.108;-1.706;2023-04-24T07:03:00;12.02;;;3.15;;
16824;SDS011;8529;48.108;-1.706;2023-04-24T07:05:27;4.88;;;2.70;;
16824;SDS011;8529;48.108;-1.706;2023-04-24T07:07:56;6.43;;;3.10;;
16824;SDS011;8529;48.108;-1.706;2023-04-24T07:10:23;4.10;;;2.90;;
16824;SDS011;8529;48.108;-1.706;2023-04-24T07:12:52;4.55;;;2.60;;
16824;SDS011;8529;48.108;-1.706;2023-04-24T07:15:19;7.10;;;2.92;;
16824;SDS011;8529;48.108;-1.706;2023-04-24T07:17:46;5.07;;;3.05;;
16824;SDS011;8529;48.108;-1.706;2023-04-24T07:20:12;4.95;;;3.13;;
16824;SDS011;8529;48.108;-1.706;2023-04-24T07:22:40;5.03;;;2.90;;
16824;SDS011;8529;48.108;-1.706;2023-04-24T07:25:09;7.28;;;3.33;;
16824;SDS011;8529;48.108;-1.706;2023-04-24T07:27:36;4.35;;;2.75;;
16824;SDS011;8529;48.108;-1.706;2023-04-24T07:30:03;6.97;;;2.67;;
16824;SDS011;8529;48.108;-1.706;2023-04-24T07:32:31;3.47;;;2.53;;
16824;SDS011;8529;48.108;-1.706;2023-04-24T07:34:58;7.00;;;3.35;;
16824;SDS011;8529;48.108;-1.706;2023-04-24T07:37:25;7.40;;;3.70;;
16824;SDS011;8529;48.108;-1.706;2023-04-24T07:39:52;4.40;;;3.58;;
16824;SDS011;8529;48.108;-1.706;2023-04-24T07:42:20;4.18;;;2.67;;
16824;SDS011;8529;48.108;-1.706;2023-04-24T07:44:47;4.63;;;3.20;;
16824;SDS011;8529;48.108;-1.706;2023-04-24T07:47:14;6.93;;;3.08;;
16824;SDS011;8529;48.108;-1.706;2023-04-24T07:49:42;7.32;;;3.15;;
16824;SDS011;8529;48.108;-1.706;2023-04-24T07:52:08;4.82;;;2.92;;
16824;SDS011;8529;48.108;-1.706;2023-04-24T07:54:35;8.52;;;3.20;;
16824;SDS011;8529;48.108;-1.706;2023-04-24T07:57:03;5.70;;;3.05;;
16824;SDS011;8529;48.108;-1.706;2023-04-24T07:59:32;5.78;;;3.00;;
16824;SDS011;8529;48.108;-1.706;2023-04-24T08:01:59;4.65;;;2.97;;
16824;SDS011;8529;48.108;-1.706;2023-04-24T08:04:26;6.35;;;2.50;;
16824;SDS011;8529;48.108;-1.706;2023-04-24T08:06:53;3.85;;;2.50;;
16824;SDS011;8529;48.108;-1.706;2023-04-24T08:09:20;5.28;;;2.72;;
16824;SDS011;8529;48.108;-1.706;2023-04-24T08:11:47;7.00;;;2.83;;
16824;SDS011;8529;48.108;-1.706;2023-04-24T08:14:16;5.35;;;2.40;;
16824;SDS011;8529;48.108;-1.706;2023-04-24T08:16:45;4.93;;;3.30;;
16824;SDS011;8529;48.108;-1.706;2023-04-24T08:19:11;4.15;;;2.47;;
16824;SDS011;8529;48.108;-1.706;2023-04-24T08:21:38;5.68;;;2.45;;
16824;SDS011;8529;48.108;-1.706;2023-04-24T08:24:05;6.97;;;2.90;;
16824;SDS011;8529;48.108;-1.706;2023-04-24T08:26:33;4.55;;;3.05;;
16824;SDS011;8529;48.108;-1.706;2023-04-24T08:29:00;4.93;;;3.00;;
16824;SDS011;8529;48.108;-1.706;2023-04-24T08:31:27;3.10;;;2.40;;
16824;SDS011;8529;48.108;-1.706;2023-04-24T08:33:55;4.95;;;2.88;;
16824;SDS011;8529;48.108;-1.706;2023-04-24T08:36:22;5.22;;;2.83;;
16824;SDS011;8529;48.108;-1.706;2023-04-24T08:38:49;7.40;;;2.80;;
16824;SDS011;8529;48.108;-1.706;2023-04-24T08:41:16;4.75;;;3.30;;
16824;SDS011;8529;48.108;-1.706;2023-04-24T08:43:45;5.97;;;2.85;;
16824;SDS011;8529;48.108;-1.706;2023-04-24T08:46:12;4.03;;;3.00;;
16824;SDS011;8529;48.108;-1.706;2023-04-24T08:48:41;6.72;;;2.75;;
16824;SDS011;8529;48.108;-1.706;2023-04-24T08:51:10;5.05;;;2.80;;
16824;SDS011;8529;48.108;-1.706;2023-04-24T08:53:36;3.63;;;2.10;;
16824;SDS011;8529;48.108;-1.706;2023-04-24T08:56:03;3.45;;;2.53;;
16824;SDS011;8529;48.108;-1.706;2023-04-24T08:58:31;7.38;;;2.60;;
16824;SDS011;8529;48.108;-1.706;2023-04-24T09:00:58;3.40;;;1.85;;
16824;SDS011;8529;48.108;-1.706;2023-04-24T09:03:26;4.82;;;2.40;;
16824;SDS011;8529;48.108;-1.706;2023-04-24T09:05:54;5.93;;;2.60;;
16824;SDS011;8529;48.108;-1.706;2023-04-24T09:08:25;6.40;;;2.42;;
16824;SDS011;8529;48.108;-1.706;2023-04-24T09:10:54;3.45;;;2.47;;
16824;SDS011;8529;48.108;-1.706;2023-04-24T09:13:23;6.30;;;2.75;;
16824;SDS011;8529;48.108;-1.706;2023-04-24T09:15:50;3.42;;;2.40;;
16824;SDS011;8529;48.108;-1.706;2023-04-24T09:18:19;6.88;;;2.72;;
16824;SDS011;8529;48.108;-1.706;2023-04-24T09:20:59;8.88;;;2.75;;
16824;SDS011;8529;48.108;-1.706;2023-04-24T09:23:29;5.55;;;2.60;;
16824;SDS011;8529;48.108;-1.706;2023-04-24T09:25:57;2.83;;;2.20;;
16824;SDS011;8529;48.108;-1.706;2023-04-24T09:28:25;4.10;;;2.53;;
16824;SDS011;8529;48.108;-1.706;2023-04-24T09:31:06;5.25;;;2.60;;
16824;SDS011;8529;48.108;-1.706;2023-04-24T09:33:35;6.32;;;2.88;;
16824;SDS011;8529;48.108;-1.706;2023-04-24T09:36:02;4.72;;;2.38;;
16824;SDS011;8529;48.108;-1.706;2023-04-24T09:38:32;5.15;;;2.50;;
16824;SDS011;8529;48.108;-1.706;2023-04-24T09:41:00;6.20;;;2.58;;
16824;SDS011;8529;48.108;-1.706;2023-04-24T09:43:28;6.55;;;2.75;;
16824;SDS011;8529;48.108;-1.706;2023-04-24T09:45:56;9.20;;;2.80;;
16824;SDS011;8529;48.108;-1.706;2023-04-24T09:48:30;6.50;;;3.03;;
16824;SDS011;8529;48.108;-1.706;2023-04-24T09:50:57;5.82;;;2.97;;
16824;SDS011;8529;48.108;-1.706;2023-04-24T09:53:26;6.22;;;2.45;;
16824;SDS011;8529;48.108;-1.706;2023-04-24T09:55:54;8.20;;;3.17;;
16824;SDS011;8529;48.108;-1.706;2023-04-24T09:58:24;7.00;;;2.33;;
16824;SDS011;8529;48.108;-1.706;2023-04-24T10:00:53;7.80;;;2.83;;
16824;SDS011;8529;48.108;-1.706;2023-04-24T10:03:22;4.13;;;2.35;;
16824;SDS011;8529;48.108;-1.706;2023-04-24T10:05:51;5.22;;;2.70;;
16824;SDS011;8529;48.108;-1.706;2023-04-24T10:08:18;6.30;;;3.38;;
16824;SDS011;8529;48.108;-1.706;2023-04-24T10:10:46;6.95;;;2.67;;
16824;SDS011;8529;48.108;-1.706;2023-04-24T10:13:15;6.03;;;2.60;;
16824;SDS011;8529;48.108;-1.706;2023-04-24T10:15:42;5.47;;;3.10;;
16824;SDS011;8529;48.108;-1.706;2023-04-24T10:18:10;10.05;;;2.63;;
16824;SDS011;8529;48.108;-1.706;2023-04-24T10:20:37;4.35;;;2.53;;
16824;SDS011;8529;48.108;-1.706;2023-04-24T10:23:06;3.88;;;2.17;;
16824;SDS011;8529;48.108;-1.706;2023-04-24T10:25:34;5.22;;;2.58;;
16824;SDS011;8529;48.108;-1.706;2023-04-24T10:28:02;7.40;;;2.70;;
16824;SDS011;8529;48.108;-1.706;2023-04-24T10:30:31;4.75;;;2.13;;
16824;SDS011;8529;48.108;-1.706;2023-04-24T10:33:00;4.80;;;2.10;;
16824;SDS011;8529;48.108;-1.706;2023-04-24T10:35:30;6.63;;;2.97;;
16824;SDS011;8529;48.108;-1.706;2023-04-24T10:37:58;8.32;;;2.60;;
16824;SDS011;8529;48.108;-1.706;2023-04-24T10:40:30;6.78;;;3.40;;
16824;SDS011;8529;48.108;-1.706;2023-04-24T10:42:59;4.97;;;2.45;;
16824;SDS011;8529;48.108;-1.706;2023-04-24T10:45:28;7.93;;;3.00;;
16824;SDS011;8529;48.108;-1.706;2023-04-24T10:47:59;5.85;;;2.53;;
16824;SDS011;8529;48.108;-1.706;2023-04-24T10:50:28;4.82;;;2.97;;
16824;SDS011;8529;48.108;-1.706;2023-04-24T10:53:05;5.65;;;2.90;;
16824;SDS011;8529;48.108;-1.706;2023-04-24T10:55:43;7.15;;;2.75;;
16824;SDS011;8529;48.108;-1.706;2023-04-24T10:58:11;5.72;;;2.65;;
16824;SDS011;8529;48.108;-1.706;2023-04-24T11:00:40;5.57;;;3.25;;
16824;SDS011;8529;48.108;-1.706;2023-04-24T11:03:23;7.03;;;2.22;;
16824;SDS011;8529;48.108;-1.706;2023-04-24T11:05:53;4.35;;;2.60;;
16824;SDS011;8529;48.108;-1.706;2023-04-24T11:08:29;5.90;;;2.95;;
16824;SDS011;8529;48.108;-1.706;2023-04-24T11:10:58;6.75;;;2.70;;
16824;SDS011;8529;48.108;-1.706;2023-04-24T11:13:27;4.85;;;2.90;;
16824;SDS011;8529;48.108;-1.706;2023-04-24T11:16:15;5.05;;;2.65;;
16824;SDS011;8529;48.108;-1.706;2023-04-24T11:18:51;6.63;;;2.47;;
16824;SDS011;8529;48.108;-1.706;2023-04-24T11:21:27;5.57;;;2.55;;
16824;SDS011;8529;48.108;-1.706;2023-04-24T11:23:57;8.48;;;2.22;;
16824;SDS011;8529;48.108;-1.706;2023-04-24T11:26:24;7.45;;;2.60;;
16824;SDS011;8529;48.108;-1.706;2023-04-24T11:29:06;7.20;;;2.85;;
16824;SDS011;8529;48.108;-1.706;2023-04-24T11:31:34;4.22;;;2.53;;
16824;SDS011;8529;48.108;-1.706;2023-04-24T11:34:07;9.63;;;2.30;;
16824;SDS011;8529;48.108;-1.706;2023-04-24T11:36:35;6.60;;;2.97;;
16824;SDS011;8529;48.108;-1.706;2023-04-24T11:39:02;4.93;;;2.15;;
16824;SDS011;8529;48.108;-1.706;2023-04-24T11:41:30;6.82;;;2.60;;
16824;SDS011;8529;48.108;-1.706;2023-04-24T11:43:57;5.93;;;2.45;;
16824;SDS011;8529;48.108;-1.706;2023-04-24T11:46:26;4.60;;;2.55;;
16824;SDS011;8529;48.108;-1.706;2023-04-24T11:48:54;6.78;;;2.40;;
16824;SDS011;8529;48.108;-1.706;2023-04-24T11:51:23;7.05;;;2.22;;
16824;SDS011;8529;48.108;-1.706;2023-04-24T11:53:51;6.95;;;2.78;;
16824;SDS011;8529;48.108;-1.706;2023-04-24T11:56:19;4.10;;;2.38;;
16824;SDS011;8529;48.108;-1.706;2023-04-24T11:58:47;5.65;;;2.30;;
16824;SDS011;8529;48.108;-1.706;2023-04-24T12:01:14;7.53;;;2.30;;
16824;SDS011;8529;48.108;-1.706;2023-04-24T12:03:41;6.03;;;2.30;;
16824;SDS011;8529;48.108;-1.706;2023-04-24T12:06:11;5.75;;;1.90;;
16824;SDS011;8529;48.108;-1.706;2023-04-24T12:08:40;6.78;;;2.22;;
16824;SDS011;8529;48.108;-1.706;2023-04-24T12:11:07;5.15;;;2.30;;
16824;SDS011;8529;48.108;-1.706;2023-04-24T12:13:34;12.70;;;2.78;;
16824;SDS011;8529;48.108;-1.706;2023-04-24T12:16:02;6.20;;;2.10;;
16824;SDS011;8529;48.108;-1.706;2023-04-24T12:18:30;8.57;;;2.65;;
16824;SDS011;8529;48.108;-1.706;2023-04-24T12:23:44;6.47;;;1.92;;
16824;SDS011;8529;48.108;-1.706;2023-04-24T12:26:11;4.20;;;2.10;;
16824;SDS011;8529;48.108;-1.706;2023-04-24T12:28:38;5.28;;;1.92;;
16824;SDS011;8529;48.108;-1.706;2023-04-24T12:31:06;5.32;;;2.00;;
16824;SDS011;8529;48.108;-1.706;2023-04-24T12:33:33;6.07;;;1.80;;
16824;SDS011;8529;48.108;-1.706;2023-04-24T12:36:01;5.55;;;1.77;;
16824;SDS011;8529;48.108;-1.706;2023-04-24T12:38:28;6.30;;;1.98;;
16824;SDS011;8529;48.108;-1.706;2023-04-24T12:41:03;7.28;;;2.15;;
16824;SDS011;8529;48.108;-1.706;2023-04-24T12:43:31;6.90;;;2.13;;
16824;SDS011;8529;48.108;-1.706;2023-04-24T12:45:58;4.70;;;2.60;;
16824;SDS011;8529;48.108;-1.706;2023-04-24T12:48:25;7.05;;;2.15;;
16824;SDS011;8529;48.108;-1.706;2023-04-24T12:50:52;6.65;;;2.08;;
16824;SDS011;8529;48.108;-1.706;2023-04-24T12:53:20;6.28;;;2.42;;
16824;SDS011;8529;48.108;-1.706;2023-04-24T12:55:47;4.25;;;1.92;;
16824;SDS011;8529;48.108;-1.706;2023-04-24T12:58:19;5.75;;;1.98;;
16824;SDS011;8529;48.108;-1.706;2023-04-24T13:00:47;4.10;;;1.92;;
16824;SDS011;8529;48.108;-1.706;2023-04-24T13:03:14;6.15;;;2.30;;
16824;SDS011;8529;48.108;-1.706;2023-04-24T13:05:41;6.15;;;2.35;;
16824;SDS011;8529;48.108;-1.706;2023-04-24T13:08:08;6.65;;;2.20;;
16824;SDS011;8529;48.108;-1.706;2023-04-24T13:10:35;5.45;;;2.00;;
16824;SDS011;8529;48.108;-1.706;2023-04-24T13:13:02;8.50;;;2.60;;
16824;SDS011;8529;48.108;-1.706;2023-04-24T13:15:31;5.38;;;2.97;;
16824;SDS011;8529;48.108;-1.706;2023-04-24T13:17:57;3.55;;;2.10;;
16824;SDS011;8529;48.108;-1.706;2023-04-24T13:20:24;4.63;;;1.88;;
16824;SDS011;8529;48.108;-1.706;2023-04-24T13:22:51;6.40;;;2.17;;
16824;SDS011;8529;48.108;-1.706;2023-04-24T13:25:18;5.13;;;2.22;;
16824;SDS011;8529;48.108;-1.706;2023-04-24T13:27:46;4.75;;;2.40;;
16824;SDS011;8529;48.108;-1.706;2023-04-24T13:30:13;9.32;;;2.42;;
16824;SDS011;8529;48.108;-1.706;2023-04-24T13:32:41;4.43;;;2.40;;
16824;SDS011;8529;48.108;-1.706;2023-04-24T13:35:08;3.47;;;2.08;;
16824;SDS011;8529;48.108;-1.706;2023-04-24T13:37:35;6.97;;;2.08;;
16824;SDS011;8529;48.108;-1.706;2023-04-24T13:40:02;8.45;;;2.13;;
16824;SDS011;8529;48.108;-1.706;2023-04-24T13:42:32;6.35;;;2.00;;
16824;SDS011;8529;48.108;-1.706;2023-04-24T13:44:59;5.55;;;2.40;;
16824;SDS011;8529;48.108;-1.706;2023-04-24T13:47:26;4.45;;;2.03;;
16824;SDS011;8529;48.108;-1.706;2023-04-24T13:49:54;5.15;;;1.80;;
16824;SDS011;8529;48.108;-1.706;2023-04-24T13:52:21;8.15;;;2.80;;
16824;SDS011;8529;48.108;-1.706;2023-04-24T13:54:48;5.72;;;2.08;;
16824;SDS011;8529;48.108;-1.706;2023-04-24T13:57:14;5.13;;;2.25;;
16824;SDS011;8529;48.108;-1.706;2023-04-24T13:59:42;4.22;;;1.90;;
16824;SDS011;8529;48.108;-1.706;2023-04-24T14:02:10;5.50;;;2.30;;
16824;SDS011;8529;48.108;-1.706;2023-04-24T14:04:37;5.25;;;1.85;;
16824;SDS011;8529;48.108;-1.706;2023-04-24T14:07:05;4.60;;;2.10;;
16824;SDS011;8529;48.108;-1.706;2023-04-24T14:09:33;3.47;;;2.22;;
16824;SDS011;8529;48.108;-1.706;2023-04-24T14:12:00;4.85;;;2.05;;
16824;SDS011;8529;48.108;-1.706;2023-04-24T14:14:28;6.82;;;2.35;;
16824;SDS011;8529;48.108;-1.706;2023-04-24T14:16:55;4.93;;;2.17;;
16824;SDS011;8529;48.108;-1.706;2023-04-24T14:19:23;5.68;;;2.00;;
16824;SDS011;8529;48.108;-1.706;2023-04-24T14:21:50;5.45;;;2.15;;
16824;SDS011;8529;48.108;-1.706;2023-04-24T14:24:18;7.78;;;2.40;;
16824;SDS011;8529;48.108;-1.706;2023-04-24T14:26:45;5.82;;;2.65;;
16824;SDS011;8529;48.108;-1.706;2023-04-24T14:29:12;8.45;;;2.88;;
16824;SDS011;8529;48.108;-1.706;2023-04-24T14:31:39;6.70;;;2.85;;
16824;SDS011;8529;48.108;-1.706;2023-04-24T14:34:06;9.57;;;3.08;;
16824;SDS011;8529;48.108;-1.706;2023-04-24T14:36:33;5.50;;;3.20;;
16824;SDS011;8529;48.108;-1.706;2023-04-24T14:39:00;5.97;;;3.42;;
16824;SDS011;8529;48.108;-1.706;2023-04-24T14:41:32;6.57;;;3.08;;
16824;SDS011;8529;48.108;-1.706;2023-04-24T14:44:01;5.30;;;2.67;;
16824;SDS011;8529;48.108;-1.706;2023-04-24T14:46:28;5.18;;;2.97;;
16824;SDS011;8529;48.108;-1.706;2023-04-24T14:48:56;5.80;;;2.72;;
16824;SDS011;8529;48.108;-1.706;2023-04-24T14:51:23;5.60;;;2.63;;
16824;SDS011;8529;48.108;-1.706;2023-04-24T14:53:50;7.53;;;3.00;;